createdAt,value
2022-12-26T00:02:01.816Z,95.80
2022-12-26T00:04:49.252Z,95.76
2022-12-26T00:07:14.957Z,95.14
2022-12-26T00:09:41.362Z,95.33
2022-12-26T00:12:07.782Z,94.92
2022-12-26T00:14:34.177Z,95.59
2022-12-26T00:17:00.560Z,95.15
2022-12-26T00:19:26.975Z,94.25
2022-12-26T00:21:53.375Z,94.09
2022-12-26T00:24:19.771Z,93.80
2022-12-26T00:26:46.151Z,93.23
2022-12-26T00:29:12.564Z,93.43
2022-12-26T00:31:39.056Z,93.05
2022-12-26T00:34:05.560Z,92.33
2022-12-26T00:36:33.813Z,93.47
2022-12-26T00:39:02.543Z,92.31
2022-12-26T00:41:29.799Z,92.18
2022-12-26T00:43:56.661Z,92.28
2022-12-26T00:46:23.175Z,92.37
2022-12-26T00:48:49.770Z,92.30
2022-12-26T00:51:16.525Z,92.24
2022-12-26T00:53:43.712Z,91.79
2022-12-26T00:56:10.137Z,91.22
2022-12-26T00:58:37.374Z,90.73
2022-12-26T01:01:17.812Z,90.99
2022-12-26T01:03:45.414Z,90.86
2022-12-26T01:06:12.384Z,90.82
2022-12-26T01:08:39.350Z,90.29
2022-12-26T01:11:08.398Z,90.40
2022-12-26T01:13:36.129Z,91.02
2022-12-26T01:16:03.275Z,91.05
2022-12-26T01:18:29.920Z,91.00
2022-12-26T01:21:02.667Z,90.91
2022-12-26T01:23:29.858Z,91.01
2022-12-26T01:26:18.383Z,90.97
2022-12-26T01:28:42.708Z,91.80
2022-12-26T01:31:09.263Z,90.96
2022-12-26T01:33:36.479Z,91.22
2022-12-26T01:36:02.871Z,90.88
2022-12-26T01:38:29.377Z,91.18
2022-12-26T01:41:14.564Z,90.75
2022-12-26T01:43:54.152Z,90.49
2022-12-26T01:46:45.495Z,89.86
2022-12-26T01:49:27.342Z,89.69
2022-12-26T01:52:00.008Z,90.29
2022-12-26T01:54:40.081Z,90.20
2022-12-26T01:57:28.046Z,89.75
2022-12-26T01:59:57.874Z,90.33
2022-12-26T02:02:28.249Z,90.29
2022-12-26T02:05:13.527Z,90.40
2022-12-26T02:07:43.168Z,90.60
2022-12-26T02:10:15.563Z,90.86
2022-12-26T02:12:42.124Z,90.79
2022-12-26T02:15:12.707Z,90.58
2022-12-26T02:17:40.191Z,90.91
2022-12-26T02:20:15.617Z,90.75
2022-12-26T02:23:03.225Z,91.42
2022-12-26T02:25:45.988Z,90.90
2022-12-26T02:28:24.567Z,90.54
2022-12-26T02:31:01.865Z,90.27
2022-12-26T02:33:42.724Z,90.11
2022-12-26T02:36:29.120Z,89.94
2022-12-26T02:39:45.387Z,90.23
2022-12-26T02:42:08.956Z,89.53
2022-12-26T02:45:28.904Z,90.33
2022-12-26T02:47:55.232Z,90.52
2022-12-26T02:50:52.538Z,90.38
2022-12-26T02:53:58.281Z,91.13
2022-12-26T02:56:50.179Z,91.20
2022-12-26T02:59:56.380Z,90.95
2022-12-26T03:02:52.048Z,90.40
2022-12-26T03:05:55.001Z,90.70
2022-12-26T03:09:02.211Z,91.58
2022-12-26T03:11:50.144Z,90.69
2022-12-26T03:14:26.380Z,90.99
2022-12-26T03:17:16.986Z,90.71
2022-12-26T03:20:06.221Z,90.86
2022-12-26T03:22:38.717Z,91.02
2022-12-26T03:25:27.888Z,91.14
2022-12-26T03:27:54.860Z,90.80
2022-12-26T03:30:40.104Z,90.69
2022-12-26T03:33:26.697Z,91.12
2022-12-26T03:35:53.590Z,91.16
2022-12-26T03:38:28.036Z,90.85
2022-12-26T03:41:24.515Z,91.10
2022-12-26T03:44:41.989Z,91.08
2022-12-26T03:47:54.077Z,91.23
2022-12-26T03:50:50.878Z,91.24
2022-12-26T03:53:45.943Z,90.75
2022-12-26T03:56:52.102Z,90.51
2022-12-26T03:59:48.502Z,90.22
2022-12-26T04:02:34.980Z,90.65
2022-12-26T04:05:23.713Z,90.29
2022-12-26T04:08:18.761Z,90.24
2022-12-26T04:11:14.295Z,90.61
2022-12-26T04:14:17.866Z,90.20
2022-12-26T04:17:09.809Z,90.00
2022-12-26T04:19:54.910Z,89.86
2022-12-26T04:23:02.368Z,90.04
2022-12-26T04:25:52.809Z,90.80
2022-12-26T04:28:40.219Z,90.65
2022-12-26T04:31:33.350Z,89.58
2022-12-26T04:34:22.977Z,89.93
2022-12-26T04:37:14.021Z,89.87
2022-12-26T04:40:03.308Z,89.54
2022-12-26T04:42:50.080Z,89.67
2022-12-26T04:45:16.953Z,89.25
2022-12-26T04:48:03.519Z,89.36
2022-12-26T04:50:30.143Z,89.61
2022-12-26T04:52:59.750Z,89.33
2022-12-26T04:55:32.933Z,89.48
2022-12-26T04:58:00.013Z,89.66
2022-12-26T05:00:28.252Z,89.44
2022-12-26T05:03:18.536Z,89.41
2022-12-26T05:06:12.954Z,89.48
2022-12-26T05:08:59.578Z,89.41
2022-12-26T05:11:26.731Z,89.55
2022-12-26T05:13:54.747Z,89.29
2022-12-26T05:16:41.248Z,89.22
2022-12-26T05:19:29.203Z,89.64
2022-12-26T05:22:15.140Z,88.93
2022-12-26T05:25:00.994Z,89.20
2022-12-26T05:27:56.347Z,88.92
2022-12-26T05:30:23.179Z,88.58
2022-12-26T05:33:08.246Z,88.27
2022-12-26T05:35:35.389Z,88.54
2022-12-26T05:38:03.276Z,88.97
2022-12-26T05:40:30.092Z,88.68
2022-12-26T05:42:56.543Z,88.61
2022-12-26T05:45:23.090Z,89.86
2022-12-26T05:47:51.961Z,89.30
2022-12-26T05:50:19.034Z,88.77
2022-12-26T05:52:45.473Z,88.61
2022-12-26T05:55:11.854Z,88.26
2022-12-26T05:57:38.264Z,88.41
2022-12-26T06:00:05.643Z,88.50
2022-12-26T06:02:32.113Z,88.40
2022-12-26T06:04:58.591Z,88.06
2022-12-26T06:07:24.965Z,88.27
2022-12-26T06:09:51.371Z,88.50
2022-12-26T06:12:17.797Z,88.87
2022-12-26T06:14:44.202Z,87.88
2022-12-26T06:17:10.614Z,88.30
2022-12-26T06:19:43.050Z,88.56
2022-12-26T06:22:12.934Z,88.37
2022-12-26T06:24:39.342Z,87.86
2022-12-26T06:27:05.943Z,87.55
2022-12-26T06:29:32.422Z,86.76
2022-12-26T06:31:58.939Z,87.30
2022-12-26T06:34:27.318Z,87.47
2022-12-26T06:36:55.354Z,87.47
2022-12-26T06:39:22.884Z,87.78
2022-12-26T06:41:49.286Z,87.54
2022-12-26T06:44:18.386Z,87.87
2022-12-26T06:46:45.238Z,88.16
2022-12-26T06:49:11.647Z,88.10
2022-12-26T06:51:38.118Z,88.09
2022-12-26T06:54:04.634Z,88.06
2022-12-26T06:56:32.422Z,87.99
2022-12-26T06:59:01.239Z,87.56
2022-12-26T07:01:30.136Z,87.85
2022-12-26T07:03:57.147Z,87.79
2022-12-26T07:06:31.278Z,88.02
2022-12-26T07:09:00.293Z,87.82
2022-12-26T07:11:30.780Z,87.62
2022-12-26T07:13:57.671Z,87.37
2022-12-26T07:16:24.777Z,87.40
2022-12-26T07:18:56.116Z,87.55
2022-12-26T07:21:23.690Z,87.75
2022-12-26T07:23:51.026Z,87.80
2022-12-26T07:26:18.257Z,88.04
2022-12-26T07:28:44.675Z,87.81
2022-12-26T07:31:20.546Z,87.26
2022-12-26T07:33:51.061Z,87.41
2022-12-26T07:36:17.688Z,87.58
2022-12-26T07:38:44.455Z,87.22
2022-12-26T07:41:29.479Z,87.13
2022-12-26T07:43:55.925Z,86.99
2022-12-26T07:46:22.403Z,86.96
2022-12-26T07:48:49.079Z,87.02
2022-12-26T07:51:18.600Z,87.38
2022-12-26T07:53:45.065Z,87.48
2022-12-26T07:56:11.465Z,87.29
2022-12-26T07:58:37.916Z,88.10
2022-12-26T08:01:04.954Z,87.57
2022-12-26T08:03:31.543Z,87.44
2022-12-26T08:05:58.860Z,87.54
2022-12-26T08:08:25.704Z,87.35
2022-12-26T08:11:03.211Z,87.69
2022-12-26T08:13:30.211Z,87.67
2022-12-26T08:15:57.488Z,87.39
2022-12-26T08:18:25.072Z,87.27
2022-12-26T08:20:52.387Z,86.91
2022-12-26T08:23:18.847Z,87.20
2022-12-26T08:25:45.314Z,87.43
2022-12-26T08:28:11.821Z,86.96
2022-12-26T08:30:41.423Z,87.37
2022-12-26T08:33:08.851Z,87.11
2022-12-26T08:35:36.471Z,87.31
2022-12-26T08:38:03.965Z,87.38
2022-12-26T08:40:42.650Z,87.38
2022-12-26T08:43:33.361Z,87.29
2022-12-26T08:45:58.422Z,88.32
2022-12-26T08:48:24.986Z,88.77
2022-12-26T08:51:04.064Z,90.61
2022-12-26T08:53:32.791Z,92.19
2022-12-26T08:55:59.976Z,94.54
2022-12-26T08:58:28.315Z,95.63
2022-12-26T09:00:55.595Z,95.94
2022-12-26T09:03:22.268Z,96.86
2022-12-26T09:05:49.121Z,97.27
2022-12-26T09:08:15.596Z,98.94
2022-12-26T09:10:42.052Z,98.86
2022-12-26T09:13:08.490Z,98.89
2022-12-26T09:15:34.933Z,99.77
2022-12-26T09:18:01.351Z,99.84
2022-12-26T09:20:27.963Z,99.72
2022-12-26T09:22:55.463Z,100.00
2022-12-26T09:25:25.361Z,100.00
2022-12-26T09:27:58.791Z,100.00
2022-12-26T09:30:26.355Z,100.00
2022-12-26T09:32:53.875Z,100.00
2022-12-26T09:35:20.282Z,100.00
2022-12-26T09:37:46.669Z,100.00
2022-12-26T09:40:28.324Z,100.00
2022-12-26T09:43:04.885Z,100.00
2022-12-26T09:45:46.151Z,100.00
2022-12-26T09:48:31.645Z,100.00
2022-12-26T09:50:58.301Z,100.00
2022-12-26T09:53:36.746Z,100.00
2022-12-26T09:56:18.340Z,100.00
2022-12-26T09:59:00.655Z,100.00
2022-12-26T10:01:33.212Z,100.00
2022-12-26T10:04:00.859Z,100.00
2022-12-26T10:06:37.046Z,100.00
2022-12-26T10:09:18.712Z,100.00
2022-12-26T10:12:16.392Z,100.00
2022-12-26T10:15:20.489Z,100.00
2022-12-26T10:17:56.157Z,100.00
2022-12-26T10:21:07.480Z,100.00
2022-12-26T10:23:38.574Z,100.00
2022-12-26T10:26:16.063Z,100.00
2022-12-26T10:29:00.568Z,100.00
2022-12-26T10:31:42.411Z,100.00
2022-12-26T10:34:16.081Z,100.00
2022-12-26T10:36:49.757Z,100.00
2022-12-26T10:39:41.465Z,100.00
2022-12-26T10:42:23.671Z,100.00
2022-12-26T10:44:50.136Z,100.00
2022-12-26T10:47:27.355Z,100.00
2022-12-26T10:49:53.906Z,100.00
2022-12-26T10:52:26.065Z,100.00
2022-12-26T10:55:28.492Z,100.00
2022-12-26T10:57:48.502Z,100.00
2022-12-26T11:00:23.083Z,100.00
2022-12-26T11:03:08.045Z,100.00
2022-12-26T11:08:43.105Z,100.00
2022-12-26T11:11:21.272Z,100.00
2022-12-26T11:14:01.300Z,100.00
2022-12-26T11:16:40.441Z,100.00
2022-12-26T11:19:06.945Z,100.00
2022-12-26T11:21:34.183Z,100.00
2022-12-26T11:24:09.670Z,100.00
2022-12-26T11:26:37.502Z,100.00
2022-12-26T11:29:10.828Z,100.00
2022-12-26T11:31:40.552Z,100.00
2022-12-26T11:34:19.571Z,100.00
2022-12-26T11:36:49.755Z,100.00
2022-12-26T11:39:28.941Z,100.00
2022-12-26T11:41:55.631Z,100.00
2022-12-26T11:44:28.862Z,100.00
2022-12-26T11:46:55.613Z,100.00
2022-12-26T11:49:34.027Z,100.00
2022-12-26T11:52:21.958Z,100.00
2022-12-26T11:54:50.916Z,100.00
2022-12-26T11:57:43.666Z,100.00
2022-12-26T12:00:19.657Z,100.00
2022-12-26T12:02:46.417Z,100.00
2022-12-26T12:05:35.000Z,100.00
2022-12-26T12:08:04.299Z,100.00
2022-12-26T12:10:42.896Z,100.00
2022-12-26T12:13:25.386Z,100.00
2022-12-26T12:16:08.878Z,100.00
2022-12-26T12:18:53.630Z,100.00
2022-12-26T12:21:39.428Z,100.00
2022-12-26T12:24:31.469Z,100.00
2022-12-26T12:27:05.542Z,100.00
2022-12-26T12:29:38.145Z,100.00
2022-12-26T12:32:16.553Z,100.00
2022-12-26T12:35:01.750Z,100.00
2022-12-26T12:38:00.640Z,100.00
2022-12-26T12:40:37.333Z,100.00
2022-12-26T12:43:16.751Z,100.00
2022-12-26T12:45:58.756Z,100.00
2022-12-26T12:48:32.565Z,100.00
2022-12-26T12:51:23.128Z,100.00
2022-12-26T12:54:11.036Z,100.00
2022-12-26T12:56:42.576Z,100.00
2022-12-26T12:59:37.422Z,100.00
2022-12-26T13:02:20.640Z,100.00
2022-12-26T13:04:53.538Z,100.00
2022-12-26T13:07:38.498Z,100.00
2022-12-26T13:10:16.234Z,100.00
2022-12-26T13:12:46.430Z,100.00
2022-12-26T13:15:36.830Z,100.00
2022-12-26T13:18:15.043Z,100.00
2022-12-26T13:20:53.344Z,100.00
2022-12-26T13:23:49.789Z,100.00
2022-12-26T13:26:20.342Z,100.00
2022-12-26T13:29:00.969Z,100.00
2022-12-26T13:31:33.825Z,100.00
2022-12-26T13:34:01.941Z,100.00
2022-12-26T13:36:41.424Z,100.00
2022-12-26T13:39:07.806Z,100.00
2022-12-26T13:41:54.320Z,100.00
2022-12-26T13:44:20.665Z,100.00
2022-12-26T13:46:47.104Z,100.00
2022-12-26T13:49:36.350Z,100.00
2022-12-26T13:52:12.007Z,100.00
2022-12-26T13:54:58.434Z,100.00
2022-12-26T13:57:44.946Z,100.00
2022-12-26T14:00:22.248Z,100.00
2022-12-26T14:03:21.574Z,100.00
2022-12-26T14:05:50.896Z,100.00
2022-12-26T14:08:33.261Z,100.00
2022-12-26T14:11:11.413Z,100.00
2022-12-26T14:14:11.169Z,100.00
2022-12-26T14:16:53.696Z,100.00
2022-12-26T14:19:45.184Z,100.00
2022-12-26T14:22:28.441Z,100.00
2022-12-26T14:25:03.756Z,100.00
2022-12-26T14:27:39.728Z,100.00
2022-12-26T14:30:21.328Z,100.00
2022-12-26T14:33:29.531Z,100.00
2022-12-26T14:36:13.896Z,100.00
2022-12-26T14:38:46.575Z,100.00
2022-12-26T14:41:34.661Z,100.00
2022-12-26T14:44:19.591Z,100.00
2022-12-26T14:46:57.597Z,100.00
2022-12-26T14:49:37.566Z,100.00
2022-12-26T14:52:33.183Z,100.00
2022-12-26T14:54:59.730Z,100.00
2022-12-26T14:57:42.098Z,100.00
2022-12-26T15:00:29.154Z,100.00
2022-12-26T15:03:24.886Z,100.00
2022-12-26T15:05:52.311Z,100.00
2022-12-26T15:08:50.561Z,100.00
2022-12-26T15:11:35.684Z,100.00
2022-12-26T15:14:23.473Z,100.00
2022-12-26T15:17:08.425Z,100.00
2022-12-26T15:20:21.528Z,100.00
2022-12-26T15:23:00.067Z,100.00
2022-12-26T15:26:05.713Z,100.00
2022-12-26T15:28:37.835Z,100.00
2022-12-26T15:31:30.414Z,100.00
2022-12-26T15:34:25.300Z,100.00
2022-12-26T15:36:57.671Z,100.00
2022-12-26T15:39:36.388Z,100.00
2022-12-26T15:42:23.741Z,100.00
2022-12-26T15:45:28.320Z,100.00
2022-12-26T15:48:07.031Z,100.00
2022-12-26T15:50:56.571Z,100.00
2022-12-26T15:53:41.809Z,100.00
2022-12-26T15:56:27.121Z,100.00
2022-12-26T15:59:21.336Z,100.00
2022-12-26T16:01:53.186Z,100.00
2022-12-26T16:04:30.825Z,100.00
2022-12-26T16:07:25.414Z,100.00
2022-12-26T16:09:54.893Z,100.00
2022-12-26T16:12:30.233Z,100.00
2022-12-26T16:15:17.430Z,100.00
2022-12-26T16:17:43.918Z,100.00
2022-12-26T16:20:55.317Z,100.00
2022-12-26T16:23:26.166Z,100.00
2022-12-26T16:25:55.811Z,100.00
2022-12-26T16:28:42.078Z,100.00
2022-12-26T16:31:09.922Z,100.00
2022-12-26T16:33:42.134Z,100.00
2022-12-26T16:36:11.420Z,100.00
2022-12-26T16:38:38.371Z,100.00
2022-12-26T16:41:22.115Z,100.00
2022-12-26T16:43:49.758Z,100.00
2022-12-26T16:46:18.997Z,100.00
2022-12-26T16:48:51.637Z,100.00
2022-12-26T16:51:35.139Z,100.00
2022-12-26T16:54:27.335Z,100.00
2022-12-26T16:57:03.121Z,100.00
2022-12-26T16:59:38.727Z,100.00
2022-12-26T17:02:06.065Z,100.00
2022-12-26T17:04:32.532Z,100.00
2022-12-26T17:07:09.147Z,100.00
2022-12-26T17:09:57.689Z,100.00
2022-12-26T17:12:28.792Z,100.00
2022-12-26T17:14:58.667Z,100.00
2022-12-26T17:17:25.209Z,100.00
2022-12-26T17:19:56.996Z,100.00
2022-12-26T17:22:35.777Z,100.00
2022-12-26T17:25:17.545Z,100.00
2022-12-26T17:27:45.181Z,100.00
2022-12-26T17:30:32.106Z,100.00
2022-12-26T17:33:04.388Z,100.00
2022-12-26T17:35:47.137Z,100.00
2022-12-26T17:38:27.010Z,100.00
2022-12-26T17:40:55.883Z,100.00
2022-12-26T17:43:31.295Z,100.00
2022-12-26T17:45:58.091Z,100.00
2022-12-26T17:48:24.665Z,100.00
2022-12-26T17:50:57.071Z,100.00
2022-12-26T17:53:32.811Z,100.00
2022-12-26T17:56:02.012Z,100.00
2022-12-26T17:58:29.748Z,100.00
2022-12-26T18:00:56.566Z,100.00
2022-12-26T18:03:23.031Z,100.00
2022-12-26T18:05:49.723Z,100.00
2022-12-26T18:08:31.882Z,100.00
2022-12-26T18:10:59.536Z,100.00
2022-12-26T18:13:26.025Z,100.00
2022-12-26T18:15:54.269Z,100.00
2022-12-26T18:18:24.712Z,100.00
2022-12-26T18:20:51.311Z,100.00
2022-12-26T18:23:17.956Z,100.00
2022-12-26T18:25:44.649Z,100.00
2022-12-26T18:28:13.938Z,100.00
2022-12-26T18:30:40.689Z,100.00
2022-12-26T18:33:09.982Z,100.00
2022-12-26T18:35:39.110Z,100.00
2022-12-26T18:38:05.789Z,100.00
2022-12-26T18:40:41.801Z,100.00
2022-12-26T18:43:09.065Z,100.00
2022-12-26T18:45:37.865Z,100.00
2022-12-26T18:48:05.389Z,100.00
2022-12-26T18:50:32.523Z,100.00
2022-12-26T18:52:59.023Z,100.00
2022-12-26T18:55:26.522Z,100.00
2022-12-26T18:57:53.192Z,100.00
2022-12-26T19:00:21.065Z,100.00
2022-12-26T19:02:48.031Z,100.00
2022-12-26T19:05:26.189Z,100.00
2022-12-26T19:07:53.492Z,100.00
2022-12-26T19:10:23.927Z,100.00
2022-12-26T19:12:51.100Z,100.00
2022-12-26T19:15:18.877Z,100.00
2022-12-26T19:17:45.564Z,100.00
2022-12-26T19:20:23.705Z,100.00
2022-12-26T19:22:52.359Z,100.00
2022-12-26T19:25:19.392Z,100.00
2022-12-26T19:27:46.643Z,100.00
2022-12-26T19:30:14.163Z,100.00
2022-12-26T19:32:41.075Z,100.00
2022-12-26T19:35:07.937Z,100.00
2022-12-26T19:37:34.391Z,100.00
2022-12-26T19:40:00.916Z,100.00
2022-12-26T19:42:27.536Z,100.00
2022-12-26T19:44:53.924Z,100.00
2022-12-26T19:47:20.539Z,100.00
2022-12-26T19:49:47.175Z,100.00
2022-12-26T19:52:13.898Z,100.00
2022-12-26T19:54:40.300Z,100.00
2022-12-26T19:57:06.973Z,100.00
2022-12-26T19:59:33.438Z,100.00
2022-12-26T20:02:03.186Z,100.00
2022-12-26T20:04:29.885Z,100.00
2022-12-26T20:06:59.778Z,100.00
2022-12-26T20:09:26.331Z,100.00
2022-12-26T20:11:55.928Z,100.00
2022-12-26T20:14:25.902Z,100.00
2022-12-26T20:17:11.221Z,100.00
2022-12-26T20:19:37.964Z,100.00
2022-12-26T20:22:05.520Z,100.00
2022-12-26T20:24:32.265Z,100.00
2022-12-26T20:26:58.790Z,100.00
2022-12-26T20:29:25.220Z,100.00
2022-12-26T20:31:55.022Z,100.00
2022-12-26T20:34:21.755Z,100.00
2022-12-26T20:36:48.217Z,100.00
2022-12-26T20:39:17.219Z,100.00
2022-12-26T20:41:44.169Z,100.00
2022-12-26T20:44:13.514Z,100.00
2022-12-26T20:46:41.322Z,100.00
2022-12-26T20:49:08.024Z,100.00
2022-12-26T20:51:37.761Z,100.00
2022-12-26T20:54:06.321Z,100.00
2022-12-26T20:56:32.922Z,100.00
2022-12-26T20:58:59.780Z,100.00
2022-12-26T21:01:29.843Z,100.00
2022-12-26T21:03:57.398Z,100.00
2022-12-26T21:06:32.090Z,100.00
2022-12-26T21:08:58.916Z,100.00
2022-12-26T21:11:31.474Z,100.00
2022-12-26T21:14:01.694Z,100.00
2022-12-26T21:16:31.375Z,100.00
2022-12-26T21:18:58.314Z,100.00
2022-12-26T21:21:27.896Z,100.00
2022-12-26T21:23:57.098Z,100.00
2022-12-26T21:26:24.524Z,100.00
2022-12-26T21:28:55.523Z,100.00
2022-12-26T21:31:21.994Z,100.00
2022-12-26T21:33:48.716Z,100.00
2022-12-26T21:36:15.129Z,100.00
2022-12-26T21:38:41.767Z,100.00
2022-12-26T21:41:10.400Z,100.00
2022-12-26T21:43:37.479Z,100.00
2022-12-26T21:46:13.757Z,100.00
2022-12-26T21:48:46.951Z,100.00
2022-12-26T21:51:18.544Z,100.00
2022-12-26T21:53:45.624Z,100.00
2022-12-26T21:56:14.154Z,100.00
2022-12-26T21:58:59.830Z,100.00
2022-12-26T22:01:27.352Z,100.00
2022-12-26T22:04:13.081Z,100.00
2022-12-26T22:06:40.435Z,100.00
2022-12-26T22:09:07.985Z,100.00
2022-12-26T22:11:53.156Z,100.00
2022-12-26T22:14:19.539Z,100.00
2022-12-26T22:16:45.942Z,100.00
2022-12-26T22:19:12.342Z,100.00
2022-12-26T22:21:38.755Z,100.00
2022-12-26T22:24:05.444Z,100.00
2022-12-26T22:26:32.006Z,100.00
2022-12-26T22:28:59.174Z,100.00
2022-12-26T22:31:34.305Z,100.00
2022-12-26T22:34:01.728Z,100.00
2022-12-26T22:36:30.127Z,100.00
2022-12-26T22:38:56.765Z,100.00
2022-12-26T22:41:23.506Z,100.00
2022-12-26T22:43:50.086Z,100.00
2022-12-26T22:46:16.995Z,100.00
2022-12-26T22:48:43.872Z,100.00
2022-12-26T22:51:19.118Z,100.00
2022-12-26T22:53:46.717Z,100.00
2022-12-26T22:56:13.127Z,100.00
2022-12-26T22:58:39.876Z,100.00
2022-12-26T23:01:18.809Z,100.00
2022-12-26T23:03:45.817Z,100.00
2022-12-26T23:06:30.959Z,100.00
2022-12-26T23:09:00.838Z,100.00
2022-12-26T23:11:35.005Z,100.00
2022-12-26T23:14:04.857Z,100.00
2022-12-26T23:16:54.105Z,100.00
2022-12-26T23:19:51.298Z,100.00
2022-12-26T23:22:17.868Z,100.00
2022-12-26T23:24:44.285Z,100.00
2022-12-26T23:27:29.305Z,100.00
2022-12-26T23:30:14.692Z,100.00
2022-12-26T23:32:43.829Z,100.00
2022-12-26T23:35:12.071Z,100.00
2022-12-26T23:37:39.654Z,100.00
2022-12-26T23:40:07.994Z,100.00
2022-12-26T23:42:34.546Z,100.00
2022-12-26T23:45:01.083Z,100.00
2022-12-26T23:47:27.634Z,100.00
2022-12-26T23:49:54.080Z,100.00
2022-12-26T23:52:24.177Z,100.00
2022-12-26T23:54:53.424Z,100.00
2022-12-26T23:57:20.172Z,100.00
2022-12-26T23:59:51.547Z,100.00
